createdAt,value
2019-05-18T00:01:25.385Z,99054.97
2019-05-18T00:03:51.745Z,99054.78
2019-05-18T00:06:18.063Z,99049.06
2019-05-18T00:08:44.392Z,99053.05
2019-05-18T00:11:10.748Z,99045.87
2019-05-18T00:13:37.119Z,99048.89
2019-05-18T00:16:03.588Z,99052.69
2019-05-18T00:18:29.923Z,99045.97
2019-05-18T00:20:57.522Z,99044.39
2019-05-18T00:23:24.300Z,99048.19
2019-05-18T00:25:50.755Z,99043.64
2019-05-18T00:28:18.819Z,99045.21
2019-05-18T00:30:45.163Z,99043.30
2019-05-18T00:33:11.508Z,99043.42
2019-05-18T00:35:37.951Z,99042.11
2019-05-18T00:38:04.625Z,99044.60
2019-05-18T00:40:31.289Z,99042.41
2019-05-18T00:42:57.905Z,99046.53
2019-05-18T00:45:25.320Z,99051.11
2019-05-18T00:47:51.672Z,99052.30
2019-05-18T00:50:18.110Z,99050.02
2019-05-18T00:52:44.655Z,99046.53
2019-05-18T00:55:11.304Z,99057.73
2019-05-18T00:57:37.638Z,99056.63
2019-05-18T01:00:08.771Z,99061.83
2019-05-18T01:02:35.191Z,99057.20
2019-05-18T01:05:03.419Z,99058.88
2019-05-18T01:07:31.440Z,99053.26
2019-05-18T01:09:57.810Z,99052.73
2019-05-18T01:12:24.426Z,99046.25
2019-05-18T01:14:50.822Z,99052.19
2019-05-18T01:17:17.184Z,99052.23
2019-05-18T01:19:43.510Z,99051.00
2019-05-18T01:22:09.865Z,99049.95
2019-05-18T01:24:36.196Z,99058.72
2019-05-18T01:27:02.549Z,99054.56
2019-05-18T01:29:28.944Z,99056.09
2019-05-18T01:31:55.292Z,99053.14
2019-05-18T01:34:21.630Z,99055.69
2019-05-18T01:36:47.958Z,99054.51
2019-05-18T01:39:14.650Z,99050.85
2019-05-18T01:41:40.972Z,99051.75
2019-05-18T01:44:08.157Z,99047.67
2019-05-18T01:46:34.516Z,99050.11
2019-05-18T01:49:00.855Z,99050.30
2019-05-18T01:51:28.378Z,99048.52
2019-05-18T01:53:54.745Z,99045.25
2019-05-18T01:56:21.086Z,99042.52
2019-05-18T01:58:47.390Z,99049.45
2019-05-18T02:01:13.753Z,99044.62
2019-05-18T02:03:40.561Z,99044.21
2019-05-18T02:06:07.035Z,99043.57
2019-05-18T02:08:33.338Z,99051.37
2019-05-18T02:10:59.664Z,99043.70
2019-05-18T02:13:25.982Z,99047.69
2019-05-18T02:15:52.313Z,99048.45
2019-05-18T02:18:28.784Z,99046.08
2019-05-18T02:20:46.884Z,99040.42
2019-05-18T02:23:13.337Z,99042.46
2019-05-18T02:25:39.724Z,99048.34
2019-05-18T02:28:06.092Z,99037.91
2019-05-18T02:30:32.439Z,99038.52
2019-05-18T02:32:58.807Z,99034.06
2019-05-18T02:35:25.136Z,99030.67
2019-05-18T02:37:51.754Z,99038.80
2019-05-18T02:40:18.128Z,99039.28
2019-05-18T02:42:44.429Z,99027.55
2019-05-18T02:45:12.971Z,99028.25
2019-05-18T02:47:39.307Z,99028.38
2019-05-18T02:50:07.121Z,99027.80
2019-05-18T02:52:33.470Z,99032.60
2019-05-18T02:55:01.747Z,99027.84
2019-05-18T02:57:28.098Z,99022.14
2019-05-18T02:59:54.443Z,99017.63
2019-05-18T03:02:20.789Z,99014.43
2019-05-18T03:04:47.584Z,99009.83
2019-05-18T03:07:14.018Z,99010.37
2019-05-18T03:09:41.676Z,99006.52
2019-05-18T03:12:08.042Z,99006.73
2019-05-18T03:14:35.492Z,99004.65
2019-05-18T03:17:01.935Z,99003.39
2019-05-18T03:19:28.290Z,99009.78
2019-05-18T03:21:54.670Z,99005.00
2019-05-18T03:24:21.010Z,99006.95
2019-05-18T03:26:47.802Z,99006.48
2019-05-18T03:29:14.162Z,99009.16
2019-05-18T03:31:40.496Z,99003.92
2019-05-18T03:34:06.867Z,99009.41
2019-05-18T03:36:33.179Z,99004.16
2019-05-18T03:38:59.528Z,99011.48
2019-05-18T03:41:25.847Z,99005.07
2019-05-18T03:43:52.253Z,99004.72
2019-05-18T03:46:23.321Z,99003.42
2019-05-18T03:48:47.811Z,98995.86
2019-05-18T03:51:16.019Z,98996.81
2019-05-18T03:53:42.343Z,98999.95
2019-05-18T03:56:08.719Z,98991.87
2019-05-18T03:58:35.149Z,98996.22
2019-05-18T04:01:01.457Z,98991.33
2019-05-18T04:03:27.818Z,98992.98
2019-05-18T04:05:54.191Z,98994.17
2019-05-18T04:08:28.072Z,98996.31
2019-05-18T04:10:54.355Z,99002.27
2019-05-18T04:13:20.688Z,99000.69
2019-05-18T04:15:47.591Z,98997.27
2019-05-18T04:18:13.946Z,98996.02
2019-05-18T04:20:40.329Z,98993.30
2019-05-18T04:23:06.687Z,99000.34
2019-05-18T04:25:33.099Z,98997.02
2019-05-18T04:27:59.461Z,98998.30
2019-05-18T04:30:25.875Z,98997.97
2019-05-18T04:32:52.798Z,99001.70
2019-05-18T04:35:19.132Z,98989.04
2019-05-18T04:37:45.518Z,98984.37
2019-05-18T04:40:12.337Z,98983.99
2019-05-18T04:42:38.659Z,98983.44
2019-05-18T04:45:05.884Z,98980.97
2019-05-18T04:47:32.240Z,98986.90
2019-05-18T04:50:05.198Z,98983.84
2019-05-18T04:52:26.951Z,98985.45
2019-05-18T04:54:53.357Z,98984.87
2019-05-18T04:57:19.713Z,98979.02
2019-05-18T04:59:46.196Z,98981.17
2019-05-18T05:02:12.631Z,98980.09
2019-05-18T05:04:39.192Z,98973.27
2019-05-18T05:07:06.627Z,98982.76
2019-05-18T05:09:32.954Z,98980.80
2019-05-18T05:11:59.267Z,98978.53
2019-05-18T05:14:25.725Z,98974.96
2019-05-18T05:16:52.144Z,98977.92
2019-05-18T05:19:18.538Z,98977.43
2019-05-18T05:21:45.006Z,98978.42
2019-05-18T05:24:11.366Z,98978.78
2019-05-18T05:26:39.582Z,98968.03
2019-05-18T05:29:07.355Z,98972.61
2019-05-18T05:31:34.069Z,98968.27
2019-05-18T05:34:00.388Z,98964.42
2019-05-18T05:36:26.824Z,98964.55
2019-05-18T05:38:54.698Z,98964.19
2019-05-18T05:41:21.014Z,98970.13
2019-05-18T05:43:50.590Z,98975.75
2019-05-18T05:46:16.933Z,98975.55
2019-05-18T05:48:43.567Z,98974.55
2019-05-18T05:51:09.970Z,98973.30
2019-05-18T05:53:36.340Z,98974.23
2019-05-18T05:56:03.055Z,98961.76
2019-05-18T05:58:29.470Z,98960.41
2019-05-18T06:00:56.059Z,98957.44
2019-05-18T06:03:23.688Z,98955.16
2019-05-18T06:05:50.017Z,98952.16
2019-05-18T06:08:16.373Z,98953.72
2019-05-18T06:10:42.764Z,98954.08
2019-05-18T06:13:10.773Z,98952.66
2019-05-18T06:15:37.138Z,98963.27
2019-05-18T06:18:03.576Z,98957.87
2019-05-18T06:20:29.894Z,98953.84
2019-05-18T06:22:56.831Z,98951.63
2019-05-18T06:25:23.271Z,98951.02
2019-05-18T06:27:49.933Z,98956.63
2019-05-18T06:30:16.596Z,98955.84
2019-05-18T06:32:43.034Z,98963.56
2019-05-18T06:35:10.499Z,98963.57
2019-05-18T06:37:36.931Z,98971.87
2019-05-18T06:40:10.900Z,98969.89
2019-05-18T06:42:38.439Z,98962.86
2019-05-18T06:45:07.832Z,98964.50
2019-05-18T06:47:34.150Z,98962.47
2019-05-18T06:50:00.806Z,98968.78
2019-05-18T06:52:27.186Z,98970.19
2019-05-18T06:54:53.546Z,98965.76
2019-05-18T06:57:22.049Z,98966.16
2019-05-18T06:59:48.790Z,98973.00
2019-05-18T07:02:15.123Z,98980.20
2019-05-18T07:04:44.497Z,98977.13
2019-05-18T07:07:10.083Z,98975.48
2019-05-18T07:09:36.474Z,98972.73
2019-05-18T07:12:03.215Z,98968.48
2019-05-18T07:14:29.537Z,98964.67
2019-05-18T07:16:56.258Z,98966.64
2019-05-18T07:19:22.958Z,98973.59
2019-05-18T07:21:52.192Z,98971.68
2019-05-18T07:24:19.730Z,98971.50
2019-05-18T07:26:46.051Z,98973.98
2019-05-18T07:29:12.381Z,98974.25
2019-05-18T07:31:38.751Z,98981.32
2019-05-18T07:34:06.107Z,98985.75
2019-05-18T07:36:32.788Z,98976.77
2019-05-18T07:38:59.099Z,98971.61
2019-05-18T07:41:25.459Z,98980.55
2019-05-18T07:43:51.780Z,98982.24
2019-05-18T07:46:18.155Z,98984.25
2019-05-18T07:48:44.476Z,98968.93
2019-05-18T07:51:11.900Z,98971.55
2019-05-18T07:53:38.269Z,98957.08
2019-05-18T07:56:04.912Z,98959.77
2019-05-18T07:58:31.357Z,98968.71
2019-05-18T08:00:59.787Z,98959.63
2019-05-18T08:03:27.461Z,98962.62
2019-05-18T08:05:53.820Z,98977.03
2019-05-18T08:08:20.244Z,98965.44
2019-05-18T08:10:46.572Z,98957.87
2019-05-18T08:13:12.945Z,98967.24
2019-05-18T08:15:41.319Z,98966.17
2019-05-18T08:18:07.681Z,98958.60
2019-05-18T08:20:34.193Z,98961.64
2019-05-18T08:23:00.879Z,98958.17
2019-05-18T08:25:28.277Z,98967.20
2019-05-18T08:27:55.051Z,98961.81
2019-05-18T08:30:21.376Z,98964.41
2019-05-18T08:32:49.238Z,98965.02
2019-05-18T08:35:18.635Z,98965.70
2019-05-18T08:37:44.999Z,98964.97
2019-05-18T08:40:11.426Z,98955.13
2019-05-18T08:42:38.396Z,98967.50
2019-05-18T08:45:06.522Z,98953.61
2019-05-18T08:47:33.213Z,98961.78
2019-05-18T08:49:59.537Z,98958.41
2019-05-18T08:52:25.888Z,98958.74
2019-05-18T08:54:52.225Z,98961.13
2019-05-18T08:57:18.566Z,98967.44
2019-05-18T08:59:44.902Z,98971.13
2019-05-18T09:02:11.365Z,98968.99
2019-05-18T09:04:37.699Z,98974.03
2019-05-18T09:07:05.043Z,98967.59
2019-05-18T09:09:31.375Z,98973.47
2019-05-18T09:11:57.734Z,98977.23
2019-05-18T09:14:24.093Z,98977.02
2019-05-18T09:16:50.428Z,98976.47
2019-05-18T09:19:16.764Z,98976.98
2019-05-18T09:21:43.112Z,98979.41
2019-05-18T09:24:09.445Z,98980.42
2019-05-18T09:26:35.788Z,98986.09
2019-05-18T09:29:02.282Z,98978.99
2019-05-18T09:31:28.848Z,98986.53
2019-05-18T09:33:55.175Z,98984.33
2019-05-18T09:36:21.512Z,98977.42
2019-05-18T09:38:48.920Z,98982.55
2019-05-18T09:41:15.531Z,98984.36
2019-05-18T09:43:42.177Z,98988.39
2019-05-18T09:46:08.615Z,98983.02
2019-05-18T09:48:34.980Z,98980.27
2019-05-18T09:51:01.341Z,98978.25
2019-05-18T09:53:30.018Z,98983.83
2019-05-18T09:55:55.909Z,98983.91
2019-05-18T09:58:22.251Z,98987.33
2019-05-18T10:00:48.596Z,98983.67
2019-05-18T10:03:14.945Z,98974.63
2019-05-18T10:05:41.600Z,98977.25
2019-05-18T10:08:08.294Z,98981.09
2019-05-18T10:10:34.686Z,98981.09
2019-05-18T10:13:03.569Z,98968.50
2019-05-18T10:15:29.920Z,98976.62
2019-05-18T10:17:56.288Z,98977.55
2019-05-18T10:20:22.595Z,98974.53
2019-05-18T10:22:59.183Z,98982.61
2019-05-18T10:25:17.271Z,98976.47
2019-05-18T10:27:43.642Z,98978.56
2019-05-18T10:30:10.811Z,98974.34
2019-05-18T10:32:37.154Z,98973.97
2019-05-18T10:35:05.804Z,98984.09
2019-05-18T10:37:32.438Z,98982.61
2019-05-18T10:39:58.767Z,98984.64
2019-05-18T10:42:25.122Z,98978.69
2019-05-18T10:44:51.513Z,98976.98
2019-05-18T10:47:17.866Z,98972.28
2019-05-18T10:49:44.394Z,98969.59
2019-05-18T10:52:10.799Z,98968.10
2019-05-18T10:54:37.174Z,98962.85
2019-05-18T10:57:03.787Z,98972.91
2019-05-18T10:59:30.130Z,98967.72
2019-05-18T11:01:56.495Z,98971.45
2019-05-18T11:04:22.821Z,98964.33
2019-05-18T11:06:50.388Z,98959.73
2019-05-18T11:09:16.747Z,98873.41
2019-05-18T11:11:44.143Z,98952.88
2019-05-18T11:14:10.515Z,98949.17
2019-05-18T11:16:37.344Z,98960.56
2019-05-18T11:19:03.855Z,98952.33
2019-05-18T11:21:30.252Z,98953.91
2019-05-18T11:23:56.677Z,98956.91
2019-05-18T11:26:23.070Z,98957.28
2019-05-18T11:28:49.648Z,98948.71
2019-05-18T11:31:16.251Z,98947.64
2019-05-18T11:33:42.594Z,98944.80
2019-05-18T11:36:08.964Z,98961.50
2019-05-18T11:38:35.502Z,98949.20
2019-05-18T11:41:01.850Z,98945.70
2019-05-18T11:43:28.187Z,98948.51
2019-05-18T11:45:54.626Z,98944.20
2019-05-18T11:48:21.396Z,98948.14
2019-05-18T11:50:47.720Z,98947.46
2019-05-18T11:53:14.070Z,98933.17
2019-05-18T11:55:40.423Z,98940.73
2019-05-18T11:58:06.758Z,98954.39
2019-05-18T12:00:34.455Z,98944.16
2019-05-18T12:03:03.231Z,98952.04
2019-05-18T12:05:29.579Z,98946.88
2019-05-18T12:07:55.892Z,98954.29
2019-05-18T12:10:22.305Z,98956.41
2019-05-18T12:12:48.667Z,98962.48
2019-05-18T12:15:16.125Z,98964.13
2019-05-18T12:17:42.511Z,98966.95
2019-05-18T12:20:09.643Z,98972.07
2019-05-18T12:22:36.097Z,98967.43
2019-05-18T12:25:07.831Z,98964.45
2019-05-18T12:27:34.166Z,98959.11
2019-05-18T12:30:00.601Z,98964.58
2019-05-18T12:32:26.959Z,98953.80
2019-05-18T12:34:53.378Z,98948.32
2019-05-18T12:37:21.611Z,98949.56
2019-05-18T12:39:49.178Z,98954.83
2019-05-18T12:42:15.500Z,98947.86
2019-05-18T12:44:41.918Z,98949.22
2019-05-18T12:47:08.295Z,98940.72
2019-05-18T12:49:34.697Z,98938.86
2019-05-18T12:52:00.990Z,98935.17
2019-05-18T12:54:33.962Z,98934.96
2019-05-18T12:56:55.612Z,98934.55
2019-05-18T12:59:21.966Z,98937.34
2019-05-18T13:01:50.140Z,98933.05
2019-05-18T13:04:16.507Z,98932.73
2019-05-18T13:06:43.211Z,98920.60
2019-05-18T13:09:09.749Z,98927.60
2019-05-18T13:11:36.385Z,98924.81
2019-05-18T13:14:03.539Z,98926.31
2019-05-18T13:16:29.940Z,98924.30
2019-05-18T13:18:59.870Z,98937.95
2019-05-18T13:21:28.201Z,98927.14
2019-05-18T13:23:54.540Z,98930.02
2019-05-18T13:26:22.929Z,98923.84
2019-05-18T13:28:49.768Z,98928.88
2019-05-18T13:31:16.304Z,98928.34
2019-05-18T13:33:42.787Z,98923.69
2019-05-18T13:36:09.183Z,98920.54
2019-05-18T13:38:35.524Z,98926.20
2019-05-18T13:41:01.944Z,98912.94
2019-05-18T13:43:28.402Z,98912.98
2019-05-18T13:45:54.793Z,98913.59
2019-05-18T13:48:21.497Z,98898.03
2019-05-18T13:50:48.528Z,98897.38
2019-05-18T13:53:14.886Z,98901.11
2019-05-18T13:55:41.201Z,98910.40
2019-05-18T13:58:07.841Z,98890.52
2019-05-18T14:00:34.162Z,98829.38
2019-05-18T14:03:00.529Z,98885.50
2019-05-18T14:05:26.872Z,98887.83
2019-05-18T14:07:53.254Z,98886.83
2019-05-18T14:10:20.021Z,98880.20
2019-05-18T14:12:46.418Z,98879.14
2019-05-18T14:15:14.178Z,98887.31
2019-05-18T14:17:41.057Z,98879.86
2019-05-18T14:20:09.209Z,98881.46
2019-05-18T14:22:35.612Z,98882.36
2019-05-18T14:25:18.686Z,98880.34
2019-05-18T14:27:37.433Z,98882.42
2019-05-18T14:30:06.179Z,98875.52
2019-05-18T14:32:32.857Z,98868.28
2019-05-18T14:34:59.174Z,98874.00
2019-05-18T14:37:25.516Z,98873.96
2019-05-18T14:39:51.841Z,98880.66
2019-05-18T14:42:18.191Z,98869.46
2019-05-18T14:44:44.532Z,98871.91
2019-05-18T14:47:10.892Z,98878.66
2019-05-18T14:49:37.497Z,98872.21
2019-05-18T14:52:03.976Z,98869.14
2019-05-18T14:54:30.295Z,98849.72
2019-05-18T14:56:56.627Z,98853.06
2019-05-18T14:59:23.071Z,98854.64
2019-05-18T15:01:49.406Z,98864.42
2019-05-18T15:04:15.709Z,98860.83
2019-05-18T15:06:42.072Z,98860.50
2019-05-18T15:09:08.741Z,98870.25
2019-05-18T15:11:35.102Z,98858.73
2019-05-18T15:14:01.611Z,98868.66
2019-05-18T15:16:28.010Z,98866.17
2019-05-18T15:18:54.375Z,98844.32
2019-05-18T15:21:20.700Z,98852.05
2019-05-18T15:23:47.032Z,98847.91
2019-05-18T15:26:13.434Z,98846.17
2019-05-18T15:28:39.832Z,98853.39
2019-05-18T15:31:06.448Z,98851.88
2019-05-18T15:33:32.785Z,98848.23
2019-05-18T15:35:59.102Z,98851.53
2019-05-18T15:38:27.210Z,98843.96
2019-05-18T15:40:53.545Z,98837.92
2019-05-18T15:43:20.314Z,98841.87
2019-05-18T15:45:46.663Z,98846.69
2019-05-18T15:48:13.150Z,98847.70
2019-05-18T15:50:39.839Z,98849.03
2019-05-18T15:53:06.205Z,98842.08
2019-05-18T15:55:32.559Z,98842.44
2019-05-18T15:57:58.906Z,98837.34
2019-05-18T16:00:25.261Z,98838.35
2019-05-18T16:02:53.541Z,98833.81
2019-05-18T16:05:20.205Z,98827.27
2019-05-18T16:07:46.842Z,98824.23
2019-05-18T16:10:14.069Z,98822.00
2019-05-18T16:12:40.497Z,98825.32
2019-05-18T16:15:07.735Z,98834.60
2019-05-18T16:17:39.275Z,98829.61
2019-05-18T16:20:04.719Z,98830.56
2019-05-18T16:22:31.073Z,98831.30
2019-05-18T16:24:57.920Z,98830.45
2019-05-18T16:27:24.293Z,98834.42
2019-05-18T16:29:50.999Z,98832.77
2019-05-18T16:32:20.441Z,98836.28
2019-05-18T16:34:46.863Z,98830.46
2019-05-18T16:37:13.198Z,98834.58
2019-05-18T16:39:40.732Z,98819.49
2019-05-18T16:42:07.562Z,98822.27
2019-05-18T16:44:33.893Z,98822.81
2019-05-18T16:47:00.242Z,98828.70
2019-05-18T16:49:26.598Z,98823.62
2019-05-18T16:51:52.963Z,98830.28
2019-05-18T16:54:19.332Z,98822.38
2019-05-18T16:56:45.964Z,98820.78
2019-05-18T16:59:12.465Z,98817.48
2019-05-18T17:01:45.743Z,98811.51
2019-05-18T17:04:12.072Z,98815.73
2019-05-18T17:06:38.517Z,98809.91
2019-05-18T17:09:05.164Z,98809.88
2019-05-18T17:11:31.985Z,98804.28
2019-05-18T17:13:58.407Z,98809.16
2019-05-18T17:16:24.711Z,98801.81
2019-05-18T17:18:51.103Z,98807.23
2019-05-18T17:21:17.455Z,98812.64
2019-05-18T17:23:45.666Z,98815.69
2019-05-18T17:26:12.003Z,98815.48
2019-05-18T17:28:40.173Z,98816.73
2019-05-18T17:31:06.517Z,98812.27
2019-05-18T17:33:33.123Z,98808.31
2019-05-18T17:36:00.685Z,98808.03
2019-05-18T17:38:27.583Z,98809.09
2019-05-18T17:40:53.920Z,98807.58
2019-05-18T17:43:20.347Z,98803.05
2019-05-18T17:45:46.680Z,98804.56
2019-05-18T17:48:13.029Z,98807.16
2019-05-18T17:50:40.755Z,98809.59
2019-05-18T17:53:07.226Z,98807.45
2019-05-18T17:55:33.578Z,98805.35
2019-05-18T17:57:59.931Z,98804.49
2019-05-18T18:00:26.469Z,98797.92
2019-05-18T18:02:53.301Z,98795.02
2019-05-18T18:05:20.169Z,98791.10
2019-05-18T18:07:48.566Z,98793.40
2019-05-18T18:10:15.681Z,98783.99
2019-05-18T18:12:42.014Z,98786.50
2019-05-18T18:15:08.867Z,98787.19
2019-05-18T18:17:36.945Z,98786.48
2019-05-18T18:20:05.382Z,98783.59
2019-05-18T18:22:31.980Z,98782.97
2019-05-18T18:24:58.391Z,98796.20
2019-05-18T18:27:27.783Z,98792.59
2019-05-18T18:29:53.055Z,98782.16
2019-05-18T18:32:19.607Z,98786.19
2019-05-18T18:34:46.053Z,98789.41
2019-05-18T18:37:12.346Z,98780.74
2019-05-18T18:39:39.776Z,98788.47
2019-05-18T18:42:06.241Z,98788.78
2019-05-18T18:44:32.883Z,98787.83
2019-05-18T18:46:59.246Z,98798.51
2019-05-18T18:49:25.758Z,98790.06
2019-05-18T18:51:52.421Z,98801.12
2019-05-18T18:54:18.772Z,98796.43
2019-05-18T18:56:46.519Z,98796.66
2019-05-18T18:59:12.988Z,98797.94
2019-05-18T19:01:39.404Z,98803.95
2019-05-18T19:04:05.935Z,98801.83
2019-05-18T19:06:32.373Z,98801.45
2019-05-18T19:08:58.811Z,98815.50
2019-05-18T19:11:25.527Z,98815.79
2019-05-18T19:13:51.900Z,98816.20
2019-05-18T19:16:19.356Z,98825.63
2019-05-18T19:18:46.059Z,98830.70
2019-05-18T19:21:13.407Z,98832.33
2019-05-18T19:23:39.961Z,98833.70
2019-05-18T19:26:06.361Z,98840.25
2019-05-18T19:28:32.839Z,98840.60
2019-05-18T19:30:59.175Z,98841.95
2019-05-18T19:33:27.214Z,98841.29
2019-05-18T19:35:53.911Z,98845.51
2019-05-18T19:38:20.312Z,98846.19
2019-05-18T19:40:47.735Z,98850.31
2019-05-18T19:43:14.072Z,98852.38
2019-05-18T19:45:40.750Z,98852.75
2019-05-18T19:48:07.103Z,98858.84
2019-05-18T19:50:33.537Z,98857.27
2019-05-18T19:53:00.251Z,98853.69
2019-05-18T19:55:26.583Z,98856.72
2019-05-18T19:58:07.817Z,98852.17
2019-05-18T20:00:25.108Z,98851.61
2019-05-18T20:02:51.788Z,98860.73
2019-05-18T20:05:18.179Z,98858.34
2019-05-18T20:07:44.637Z,98854.22
2019-05-18T20:10:13.237Z,98857.45
2019-05-18T20:12:39.657Z,98857.07
2019-05-18T20:15:09.586Z,98850.95
2019-05-18T20:17:36.536Z,98851.49
2019-05-18T20:20:07.078Z,98851.63
2019-05-18T20:22:33.598Z,98856.16
2019-05-18T20:24:59.929Z,98848.88
2019-05-18T20:27:29.781Z,98848.30
2019-05-18T20:29:56.575Z,98851.72
2019-05-18T20:32:22.921Z,98855.50
2019-05-18T20:34:49.329Z,98854.77
2019-05-18T20:37:15.766Z,98848.73
2019-05-18T20:39:42.367Z,98847.94
2019-05-18T20:42:08.961Z,98850.63
2019-05-18T20:44:35.459Z,98848.21
2019-05-18T20:47:01.999Z,98847.44
2019-05-18T20:49:28.335Z,98845.62
2019-05-18T20:51:55.244Z,98844.53
2019-05-18T20:54:21.797Z,98848.43
2019-05-18T20:56:48.135Z,98851.98
2019-05-18T20:59:14.995Z,98854.48
2019-05-18T21:01:41.361Z,98848.64
2019-05-18T21:04:07.709Z,98850.25
2019-05-18T21:06:34.528Z,98847.50
2019-05-18T21:09:00.994Z,98848.77
2019-05-18T21:11:27.317Z,98852.13
2019-05-18T21:13:53.756Z,98846.62
2019-05-18T21:16:20.077Z,98845.30
2019-05-18T21:18:46.832Z,98845.62
2019-05-18T21:21:13.147Z,98842.71
2019-05-18T21:23:39.502Z,98840.63
2019-05-18T21:26:08.829Z,98839.89
2019-05-18T21:28:35.630Z,98842.76
2019-05-18T21:31:02.105Z,98841.25
2019-05-18T21:33:28.459Z,98838.69
2019-05-18T21:35:54.818Z,98837.18
2019-05-18T21:38:21.139Z,98830.44
2019-05-18T21:40:47.467Z,98828.52
2019-05-18T21:43:13.835Z,98827.20
2019-05-18T21:45:40.148Z,98831.25
2019-05-18T21:48:06.604Z,98829.14
2019-05-18T21:50:32.935Z,98830.45
2019-05-18T21:52:59.782Z,98829.34
2019-05-18T21:55:26.068Z,98832.19
2019-05-18T21:57:52.380Z,98828.45
2019-05-18T22:00:20.030Z,98834.56
2019-05-18T22:02:48.760Z,98822.51
2019-05-18T22:05:15.243Z,98823.03
2019-05-18T22:07:41.562Z,98824.72
2019-05-18T22:10:08.330Z,98824.72
2019-05-18T22:12:34.697Z,98820.31
2019-05-18T22:15:01.425Z,98813.73
2019-05-18T22:17:27.800Z,98814.40
2019-05-18T22:19:54.147Z,98812.25
2019-05-18T22:22:20.461Z,98816.73
2019-05-18T22:24:46.781Z,98823.83
2019-05-18T22:27:13.463Z,98826.33
2019-05-18T22:29:39.986Z,98824.02
2019-05-18T22:32:06.342Z,98831.30
2019-05-18T22:34:33.006Z,98831.79
2019-05-18T22:36:59.336Z,98821.59
2019-05-18T22:39:26.751Z,98825.23
2019-05-18T22:41:53.227Z,98821.11
2019-05-18T22:44:19.775Z,98826.73
2019-05-18T22:46:46.095Z,98828.86
2019-05-18T22:49:13.925Z,98822.92
2019-05-18T22:51:40.264Z,98812.05
2019-05-18T22:54:06.618Z,98809.44
2019-05-18T22:56:32.957Z,98804.95
2019-05-18T22:58:59.281Z,98810.76
2019-05-18T23:01:25.926Z,98797.36
2019-05-18T23:03:52.347Z,98796.70
2019-05-18T23:06:18.753Z,98793.42
2019-05-18T23:08:45.436Z,98794.55
2019-05-18T23:11:12.444Z,98804.47
2019-05-18T23:13:38.846Z,98797.19
2019-05-18T23:16:05.552Z,98803.98
2019-05-18T23:18:31.903Z,98799.53
2019-05-18T23:20:58.234Z,98796.23
2019-05-18T23:23:24.557Z,98800.22
2019-05-18T23:25:50.911Z,98800.39
2019-05-18T23:28:17.238Z,98792.30
2019-05-18T23:30:43.595Z,98784.25
2019-05-18T23:33:11.015Z,98790.98
2019-05-18T23:35:37.578Z,98792.15
2019-05-18T23:38:04.292Z,98796.91
2019-05-18T23:40:30.626Z,98796.09
2019-05-18T23:42:57.339Z,98796.75
2019-05-18T23:45:23.763Z,98798.75
2019-05-18T23:47:50.453Z,98794.47
2019-05-18T23:50:16.887Z,98791.84
2019-05-18T23:52:43.262Z,98792.03
2019-05-18T23:55:09.785Z,98782.62
2019-05-18T23:57:36.284Z,98782.97
